createdAt,value
2018-11-23T00:00:56.729Z,3.8
2018-11-23T00:02:06.892Z,3.8
2018-11-23T00:03:17.061Z,3.86
2018-11-23T00:04:27.230Z,3.73
2018-11-23T00:05:37.387Z,3.72
2018-11-23T00:06:47.284Z,3.96
2018-11-23T00:07:57.438Z,3.86
2018-11-23T00:09:07.066Z,3.83
2018-11-23T00:10:17.228Z,3.86
2018-11-23T00:11:27.382Z,3.84
2018-11-23T00:12:37.269Z,3.78
2018-11-23T00:13:47.427Z,3.72
2018-11-23T00:14:57.581Z,3.8
2018-11-23T00:16:07.749Z,3.8
2018-11-23T00:17:17.908Z,3.78
2018-11-23T00:18:27.802Z,3.79
2018-11-23T00:19:37.960Z,3.8
2018-11-23T00:20:47.587Z,3.87
2018-11-23T00:21:57.490Z,3.73
2018-11-23T00:23:07.652Z,3.79
2018-11-23T00:24:17.804Z,3.78
2018-11-23T00:25:27.704Z,3.73
2018-11-23T00:26:37.852Z,3.7
2018-11-23T00:27:48.007Z,3.72
2018-11-23T00:28:57.904Z,3.84
2018-11-23T00:30:08.055Z,3.87
2018-11-23T00:31:18.216Z,3.83
2018-11-23T00:32:28.377Z,3.86
2018-11-23T00:33:38.268Z,3.84
2018-11-23T00:34:48.177Z,3.84
2018-11-23T00:35:58.069Z,3.78
2018-11-23T00:37:08.224Z,3.8
2018-11-23T00:38:18.382Z,3.78
2018-11-23T00:39:28.568Z,3.84
2018-11-23T00:40:38.739Z,3.83
2018-11-23T00:41:48.894Z,3.86
2018-11-23T00:42:59.045Z,3.84
2018-11-23T00:44:09.206Z,3.86
2018-11-23T00:45:19.359Z,3.93
2018-11-23T00:46:29.518Z,3.84
2018-11-23T00:47:39.676Z,3.7
2018-11-23T00:48:49.307Z,3.78
2018-11-23T00:49:59.463Z,3.91
2018-11-23T00:51:09.624Z,3.9
2018-11-23T00:52:19.771Z,3.83
2018-11-23T00:53:29.661Z,3.87
2018-11-23T00:54:39.561Z,3.73
2018-11-23T00:55:49.477Z,3.87
2018-11-23T00:56:59.638Z,3.88
2018-11-23T00:58:09.531Z,3.88
2018-11-23T00:59:19.423Z,3.83
2018-11-23T01:00:29.331Z,3.79
2018-11-23T01:01:39.228Z,3.75
2018-11-23T01:02:49.396Z,3.75
2018-11-23T01:03:59.311Z,3.79
2018-11-23T01:05:09.207Z,3.78
2018-11-23T01:06:19.109Z,3.78
2018-11-23T01:07:29.270Z,3.78
2018-11-23T01:08:39.435Z,3.84
2018-11-23T01:09:49.326Z,3.75
2018-11-23T01:10:59.490Z,3.78
2018-11-23T01:12:09.378Z,3.73
2018-11-23T01:13:19.542Z,3.84
2018-11-23T01:14:29.690Z,3.76
2018-11-23T01:15:39.857Z,3.8
2018-11-23T01:16:50.017Z,3.8
2018-11-23T01:17:59.902Z,3.79
2018-11-23T01:19:09.793Z,3.78
2018-11-23T01:20:19.959Z,3.76
2018-11-23T01:21:30.113Z,3.79
2018-11-23T01:22:40.255Z,3.78
2018-11-23T01:23:50.462Z,3.72
2018-11-23T01:25:00.632Z,3.79
2018-11-23T01:26:10.792Z,3.73
2018-11-23T01:27:20.946Z,3.75
2018-11-23T01:28:31.106Z,3.79
2018-11-23T01:29:41.331Z,3.76
2018-11-23T01:30:51.490Z,3.69
2018-11-23T01:32:01.376Z,3.73
2018-11-23T01:33:11.002Z,3.76
2018-11-23T01:34:21.162Z,3.72
2018-11-23T01:35:31.062Z,3.78
2018-11-23T01:36:41.228Z,3.75
2018-11-23T01:37:51.386Z,3.88
2018-11-23T01:39:01.541Z,3.83
2018-11-23T01:40:11.440Z,3.79
2018-11-23T01:41:21.657Z,3.75
2018-11-23T01:42:31.557Z,3.73
2018-11-23T01:43:41.721Z,3.78
2018-11-23T01:44:51.609Z,3.76
2018-11-23T01:46:01.765Z,3.79
2018-11-23T01:47:11.933Z,3.84
2018-11-23T01:48:22.091Z,3.72
2018-11-23T01:49:31.988Z,3.78
2018-11-23T01:50:42.154Z,3.79
2018-11-23T01:51:52.339Z,3.78
2018-11-23T01:53:02.522Z,3.73
2018-11-23T01:54:12.685Z,3.69
2018-11-23T01:55:22.850Z,3.78
2018-11-23T01:56:32.749Z,3.7
2018-11-23T01:57:42.647Z,3.88
2018-11-23T01:58:52.801Z,3.91
2018-11-23T02:00:02.972Z,3.83
2018-11-23T02:01:13.137Z,3.78
2018-11-23T02:02:23.296Z,3.84
2018-11-23T02:03:33.456Z,3.83
2018-11-23T02:04:43.619Z,3.84
2018-11-23T02:05:53.775Z,3.87
2018-11-23T02:07:03.933Z,3.84
2018-11-23T02:08:13.822Z,3.84
2018-11-23T02:09:23.971Z,3.83
2018-11-23T02:10:34.127Z,3.75
2018-11-23T02:11:44.292Z,3.86
2018-11-23T02:12:54.447Z,3.87
2018-11-23T02:14:04.616Z,3.79
2018-11-23T02:15:14.508Z,3.84
2018-11-23T02:16:24.660Z,3.8
2018-11-23T02:17:34.824Z,3.8
2018-11-23T02:18:44.978Z,3.91
2018-11-23T02:19:55.142Z,3.78
2018-11-23T02:21:05.301Z,3.8
2018-11-23T02:22:15.453Z,3.83
2018-11-23T02:23:25.343Z,3.87
2018-11-23T02:24:35.492Z,3.84
2018-11-23T02:25:45.648Z,3.93
2018-11-23T02:26:55.538Z,3.79
2018-11-23T02:28:05.718Z,3.76
2018-11-23T02:29:15.877Z,3.72
2018-11-23T02:30:25.778Z,3.7
2018-11-23T02:31:35.948Z,3.69
2018-11-23T02:32:46.110Z,3.8
2018-11-23T02:33:56.153Z,3.78
2018-11-23T02:35:06.316Z,3.78
2018-11-23T02:36:16.486Z,3.8
2018-11-23T02:37:26.647Z,3.78
2018-11-23T02:38:36.561Z,3.79
2018-11-23T02:39:46.780Z,3.79
2018-11-23T02:40:56.946Z,3.79
2018-11-23T02:42:06.889Z,3.86
2018-11-23T02:43:16.780Z,3.87
2018-11-23T02:44:26.695Z,3.72
2018-11-23T02:45:36.925Z,3.73
2018-11-23T02:46:46.811Z,3.69
2018-11-23T02:47:56.968Z,3.75
2018-11-23T02:49:07.195Z,3.75
2018-11-23T02:50:17.366Z,3.7
2018-11-23T02:51:27.528Z,3.7
2018-11-23T02:52:37.741Z,3.69
2018-11-23T02:53:47.898Z,3.8
2018-11-23T02:54:58.087Z,3.8
2018-11-23T02:56:07.978Z,3.87
2018-11-23T02:57:17.938Z,3.75
2018-11-23T02:58:28.096Z,3.7
2018-11-23T02:59:38.251Z,3.76
2018-11-23T03:00:48.405Z,3.79
2018-11-23T03:01:58.559Z,3.86
2018-11-23T03:03:08.721Z,3.83
2018-11-23T03:04:18.872Z,3.75
2018-11-23T03:05:29.023Z,3.87
2018-11-23T03:06:39.185Z,3.83
2018-11-23T03:07:49.068Z,3.76
2018-11-23T03:08:59.227Z,3.86
2018-11-23T03:10:09.125Z,3.86
2018-11-23T03:11:19.281Z,3.9
2018-11-23T03:12:29.435Z,3.72
2018-11-23T03:13:39.366Z,3.84
2018-11-23T03:14:49.255Z,3.8
2018-11-23T03:15:59.150Z,3.84
2018-11-23T03:17:09.365Z,3.93
2018-11-23T03:18:19.257Z,3.79
2018-11-23T03:19:29.414Z,3.72
2018-11-23T03:20:39.305Z,3.75
2018-11-23T03:21:49.462Z,3.84
2018-11-23T03:22:59.621Z,3.86
2018-11-23T03:24:09.775Z,3.94
2018-11-23T03:25:19.412Z,3.93
2018-11-23T03:26:29.583Z,3.86
2018-11-23T03:27:39.737Z,3.69
2018-11-23T03:28:49.901Z,3.78
2018-11-23T03:30:00.062Z,3.7
2018-11-23T03:31:17.335Z,3.73
2018-11-23T03:32:27.518Z,3.75
2018-11-23T03:33:37.420Z,3.75
2018-11-23T03:34:47.310Z,3.73
2018-11-23T03:35:57.210Z,3.75
2018-11-23T03:37:07.114Z,3.69
2018-11-23T03:38:16.999Z,3.72
2018-11-23T03:39:27.995Z,3.78
2018-11-23T03:40:44.020Z,3.8
2018-11-23T03:41:54.181Z,3.78
2018-11-23T03:43:04.353Z,3.79
2018-11-23T03:44:14.516Z,3.78
2018-11-23T03:45:24.423Z,3.84
2018-11-23T03:46:34.588Z,3.91
2018-11-23T03:47:44.741Z,3.87
2018-11-23T03:48:54.650Z,3.76
2018-11-23T03:50:04.819Z,3.9
2018-11-23T03:51:14.981Z,3.75
2018-11-23T03:52:25.188Z,3.84
2018-11-23T03:53:35.351Z,3.73
2018-11-23T03:54:45.239Z,3.73
2018-11-23T03:55:55.396Z,3.84
2018-11-23T03:57:05.292Z,3.8
2018-11-23T03:58:15.461Z,3.75
2018-11-23T03:59:25.354Z,3.78
2018-11-23T04:00:35.516Z,3.84
2018-11-23T04:01:45.411Z,3.8
2018-11-23T04:02:55.568Z,3.75
2018-11-23T04:04:05.473Z,3.75
2018-11-23T04:05:15.635Z,3.83
2018-11-23T04:06:25.805Z,3.73
2018-11-23T04:07:35.967Z,3.84
2018-11-23T04:08:46.127Z,3.87
2018-11-23T04:09:56.025Z,3.8
2018-11-23T04:11:06.220Z,3.87
2018-11-23T04:12:16.376Z,3.83
2018-11-23T04:13:26.586Z,3.73
2018-11-23T04:14:36.746Z,3.73
2018-11-23T04:15:46.935Z,3.69
2018-11-23T04:16:56.825Z,3.8
2018-11-23T04:18:06.460Z,3.72
2018-11-23T04:19:16.088Z,3.7
2018-11-23T04:20:26.242Z,3.79
2018-11-23T04:21:36.405Z,3.73
2018-11-23T04:22:46.305Z,3.73
2018-11-23T04:23:56.474Z,3.78
2018-11-23T04:25:06.667Z,3.8
2018-11-23T04:26:16.570Z,3.75
2018-11-23T04:27:32.534Z,3.8
2018-11-23T04:28:42.693Z,3.79
2018-11-23T04:29:52.852Z,3.75
2018-11-23T04:31:02.796Z,3.75
2018-11-23T04:32:12.684Z,3.79
2018-11-23T04:33:22.580Z,3.73
2018-11-23T04:34:32.476Z,3.79
2018-11-23T04:35:42.630Z,3.84
2018-11-23T04:36:52.784Z,3.87
2018-11-23T04:38:02.939Z,3.87
2018-11-23T04:39:13.106Z,3.9
2018-11-23T04:40:23.264Z,3.79
2018-11-23T04:41:33.426Z,3.86
2018-11-23T04:42:43.060Z,3.78
2018-11-23T04:43:52.692Z,3.87
2018-11-23T04:45:02.854Z,3.79
2018-11-23T04:46:13.023Z,3.91
2018-11-23T04:47:23.178Z,3.78
2018-11-23T04:48:33.342Z,3.78
2018-11-23T04:49:43.505Z,3.78
2018-11-23T04:50:53.659Z,3.84
2018-11-23T04:52:03.822Z,3.7
2018-11-23T04:53:13.980Z,3.8
2018-11-23T04:54:23.926Z,3.94
2018-11-23T04:55:33.817Z,3.83
2018-11-23T04:56:43.975Z,3.91
2018-11-23T04:57:58.628Z,3.88
2018-11-23T04:59:08.786Z,3.9
2018-11-23T05:00:18.691Z,3.91
2018-11-23T05:01:28.584Z,4.02
2018-11-23T05:02:38.741Z,3.94
2018-11-23T05:03:48.899Z,3.86
2018-11-23T05:04:59.050Z,3.91
2018-11-23T05:06:09.207Z,3.87
2018-11-23T05:07:19.368Z,3.84
2018-11-23T05:08:29.263Z,3.9
2018-11-23T05:09:39.420Z,3.93
2018-11-23T05:10:49.321Z,3.91
2018-11-23T05:11:58.956Z,3.88
2018-11-23T05:13:09.107Z,3.94
2018-11-23T05:14:19.264Z,3.98
2018-11-23T05:15:29.425Z,3.96
2018-11-23T05:16:39.588Z,3.97
2018-11-23T05:17:49.788Z,3.9
2018-11-23T05:18:59.958Z,3.93
2018-11-23T05:20:10.123Z,3.96
2018-11-23T05:21:20.284Z,3.79
2018-11-23T05:22:30.458Z,3.84
2018-11-23T05:23:40.618Z,3.79
2018-11-23T05:24:50.787Z,3.76
2018-11-23T05:26:00.947Z,3.87
2018-11-23T05:27:11.096Z,3.83
2018-11-23T05:28:21.254Z,3.88
2018-11-23T05:29:31.464Z,3.8
2018-11-23T05:30:41.617Z,3.83
2018-11-23T05:31:51.781Z,3.91
2018-11-23T05:33:01.944Z,3.8
2018-11-23T05:34:11.873Z,3.88
2018-11-23T05:35:22.041Z,3.86
2018-11-23T05:36:32.199Z,3.88
2018-11-23T05:37:42.989Z,3.87
2018-11-23T05:38:53.158Z,3.8
2018-11-23T05:40:03.054Z,3.84
2018-11-23T05:41:13.293Z,3.83
2018-11-23T05:42:23.448Z,3.84
2018-11-23T05:43:33.600Z,3.88
2018-11-23T05:44:43.763Z,3.79
2018-11-23T05:45:53.918Z,3.86
2018-11-23T05:47:04.071Z,3.9
2018-11-23T05:48:13.993Z,3.88
2018-11-23T05:49:24.380Z,3.97
2018-11-23T05:50:34.282Z,3.98
2018-11-23T05:51:44.187Z,3.93
2018-11-23T05:52:54.345Z,3.94
2018-11-23T05:54:04.239Z,4.05
2018-11-23T05:55:14.434Z,3.98
2018-11-23T05:56:24.588Z,3.94
2018-11-23T05:57:34.744Z,3.9
2018-11-23T05:58:44.902Z,3.91
2018-11-23T05:59:55.081Z,3.86
2018-11-23T06:01:05.230Z,3.96
2018-11-23T06:02:15.382Z,3.84
2018-11-23T06:03:25.279Z,3.93
2018-11-23T06:04:35.439Z,3.9
2018-11-23T06:05:45.594Z,3.88
2018-11-23T06:06:55.749Z,3.83
2018-11-23T06:08:05.898Z,3.87
2018-11-23T06:09:15.786Z,3.93
2018-11-23T06:10:25.944Z,3.91
2018-11-23T06:11:36.102Z,3.9
2018-11-23T06:12:46.264Z,3.9
2018-11-23T06:13:56.425Z,3.93
2018-11-23T06:15:06.319Z,3.79
2018-11-23T06:16:16.482Z,3.78
2018-11-23T06:17:26.654Z,3.94
2018-11-23T06:18:36.814Z,3.93
2018-11-23T06:19:46.976Z,3.87
2018-11-23T06:20:56.868Z,3.78
2018-11-23T06:22:06.761Z,3.86
2018-11-23T06:23:16.919Z,3.76
2018-11-23T06:24:33.928Z,3.83
2018-11-23T06:25:44.078Z,3.91
2018-11-23T06:26:53.962Z,3.86
2018-11-23T06:28:03.862Z,3.9
2018-11-23T06:29:14.034Z,3.86
2018-11-23T06:30:24.186Z,3.78
2018-11-23T06:31:34.344Z,3.96
2018-11-23T06:32:44.501Z,3.86
2018-11-23T06:33:54.707Z,3.9
2018-11-23T06:35:04.863Z,3.84
2018-11-23T06:36:14.765Z,3.87
2018-11-23T06:37:24.919Z,3.8
2018-11-23T06:38:35.072Z,3.88
2018-11-23T06:39:45.233Z,3.87
2018-11-23T06:40:55.380Z,3.83
2018-11-23T06:42:05.569Z,3.79
2018-11-23T06:43:15.728Z,3.88
2018-11-23T06:44:25.649Z,3.97
2018-11-23T06:45:35.808Z,3.91
2018-11-23T06:46:45.758Z,3.88
2018-11-23T06:47:55.919Z,3.93
2018-11-23T06:49:06.085Z,3.9
2018-11-23T06:50:16.245Z,3.88
2018-11-23T06:51:26.403Z,3.98
2018-11-23T06:52:36.567Z,3.86
2018-11-23T06:53:46.463Z,3.75
2018-11-23T06:54:56.621Z,3.86
2018-11-23T06:56:06.777Z,3.83
2018-11-23T06:57:16.673Z,3.84
2018-11-23T06:58:26.305Z,3.8
2018-11-23T06:59:36.457Z,3.87
2018-11-23T07:00:46.346Z,3.8
2018-11-23T07:01:56.503Z,3.9
2018-11-23T07:03:06.414Z,3.84
2018-11-23T07:04:16.303Z,3.84
2018-11-23T07:05:26.492Z,3.84
2018-11-23T07:06:36.660Z,3.84
2018-11-23T07:07:46.821Z,3.87
2018-11-23T07:08:57.486Z,3.91
2018-11-23T07:10:07.640Z,3.84
2018-11-23T07:11:17.799Z,3.79
2018-11-23T07:12:27.952Z,3.88
2018-11-23T07:13:38.115Z,3.88
2018-11-23T07:14:48.068Z,3.83
2018-11-23T07:15:57.955Z,3.79
2018-11-23T07:17:08.116Z,3.88
2018-11-23T07:18:18.320Z,3.84
2018-11-23T07:19:28.214Z,3.87
2018-11-23T07:20:38.358Z,3.86
2018-11-23T07:21:48.507Z,3.94
2018-11-23T07:22:58.677Z,3.96
2018-11-23T07:24:08.832Z,3.91
2018-11-23T07:25:18.989Z,3.93
2018-11-23T07:26:29.148Z,3.91
2018-11-23T07:27:39.308Z,3.84
2018-11-23T07:28:48.946Z,3.9
2018-11-23T07:29:59.099Z,3.93
2018-11-23T07:31:09.324Z,3.94
2018-11-23T07:32:19.477Z,3.84
2018-11-23T07:33:29.368Z,3.84
2018-11-23T07:34:39.524Z,3.88
2018-11-23T07:35:49.415Z,3.87
2018-11-23T07:36:59.564Z,3.88
2018-11-23T07:38:09.771Z,3.94
2018-11-23T07:39:19.934Z,3.86
2018-11-23T07:40:29.823Z,3.84
2018-11-23T07:41:39.976Z,3.88
2018-11-23T07:42:49.868Z,3.9
2018-11-23T07:44:00.031Z,3.94
2018-11-23T07:45:10.188Z,3.88
2018-11-23T07:46:20.357Z,3.83
2018-11-23T07:47:30.515Z,3.98
2018-11-23T07:48:40.675Z,3.83
2018-11-23T07:49:50.836Z,3.84
2018-11-23T07:51:00.779Z,3.79
2018-11-23T07:52:10.948Z,3.87
2018-11-23T07:53:21.102Z,3.83
2018-11-23T07:54:31.300Z,3.84
2018-11-23T07:55:41.457Z,3.88
2018-11-23T07:56:51.610Z,3.83
2018-11-23T07:58:01.772Z,3.9
2018-11-23T07:59:11.933Z,3.87
2018-11-23T08:00:21.572Z,3.91
2018-11-23T08:01:31.781Z,3.87
2018-11-23T08:02:41.942Z,4.02
2018-11-23T08:03:52.114Z,4
2018-11-23T08:05:02.268Z,4
2018-11-23T08:06:12.164Z,4.06
2018-11-23T08:07:21.790Z,4.08
2018-11-23T08:08:31.684Z,3.98
2018-11-23T08:09:41.842Z,3.97
2018-11-23T08:10:52.054Z,3.97
2018-11-23T08:12:02.223Z,4
2018-11-23T08:13:12.430Z,4.02
2018-11-23T08:14:22.586Z,4.06
2018-11-23T08:15:32.740Z,4.08
2018-11-23T08:16:43.051Z,4.15
2018-11-23T08:17:53.208Z,4.14
2018-11-23T08:19:03.367Z,4.15
2018-11-23T08:20:13.254Z,4.14
2018-11-23T08:21:23.420Z,4.12
2018-11-23T08:22:33.315Z,4.06
2018-11-23T08:23:43.468Z,4.08
2018-11-23T08:24:53.633Z,4.18
2018-11-23T08:26:03.802Z,4.16
2018-11-23T08:27:13.967Z,4.14
2018-11-23T08:28:24.134Z,4.24
2018-11-23T08:29:34.287Z,4.22
2018-11-23T08:30:44.486Z,4.11
2018-11-23T08:31:54.374Z,4.22
2018-11-23T08:33:04.537Z,4.14
2018-11-23T08:34:14.692Z,4.15
2018-11-23T08:35:24.584Z,4.12
2018-11-23T08:36:34.743Z,4.16
2018-11-23T08:37:44.901Z,4.11
2018-11-23T08:38:54.544Z,4.16
2018-11-23T08:40:10.147Z,4.15
2018-11-23T08:41:20.295Z,4.14
2018-11-23T08:42:30.451Z,4.11
2018-11-23T08:43:40.614Z,4.14
2018-11-23T08:44:50.521Z,4.22
2018-11-23T08:46:00.686Z,4.09
2018-11-23T08:47:10.849Z,4.11
2018-11-23T08:48:21.056Z,4.18
2018-11-23T08:49:31.220Z,4.16
2018-11-23T08:50:41.387Z,4.15
2018-11-23T08:51:51.558Z,4.22
2018-11-23T08:53:01.719Z,4.14
2018-11-23T08:54:11.891Z,4.15
2018-11-23T08:55:22.088Z,4.18
2018-11-23T08:56:32.026Z,4.14
2018-11-23T08:57:42.188Z,4.27
2018-11-23T08:58:52.351Z,4.32
2018-11-23T09:00:02.263Z,4.22
2018-11-23T09:01:11.897Z,4.2
2018-11-23T09:02:22.093Z,4.15
2018-11-23T09:03:31.984Z,4.23
2018-11-23T09:04:41.877Z,4.27
2018-11-23T09:05:52.034Z,4.29
2018-11-23T09:07:01.928Z,4.27
2018-11-23T09:08:11.574Z,4.32
2018-11-23T09:09:21.731Z,4.34
2018-11-23T09:10:31.893Z,4.32
2018-11-23T09:11:42.067Z,4.34
2018-11-23T09:12:52.234Z,4.27
2018-11-23T09:14:02.389Z,4.27
2018-11-23T09:15:12.553Z,4.33
2018-11-23T09:16:22.715Z,4.32
2018-11-23T09:17:32.873Z,4.3
2018-11-23T09:18:43.033Z,4.42
2018-11-23T09:19:52.933Z,4.4
2018-11-23T09:21:02.824Z,4.36
2018-11-23T09:22:12.712Z,4.33
2018-11-23T09:23:28.824Z,4.3
2018-11-23T09:24:38.767Z,4.41
2018-11-23T09:25:48.979Z,4.41
2018-11-23T09:26:59.135Z,4.37
2018-11-23T09:28:09.026Z,4.42
2018-11-23T09:29:18.916Z,4.45
2018-11-23T09:30:29.440Z,4.45
2018-11-23T09:31:39.338Z,4.37
2018-11-23T09:32:49.499Z,4.41
2018-11-23T09:33:59.403Z,4.34
2018-11-23T09:35:09.308Z,4.4
2018-11-23T09:36:19.473Z,4.29
2018-11-23T09:37:29.364Z,4.34
2018-11-23T09:38:39.260Z,4.45
2018-11-23T09:39:49.206Z,4.42
2018-11-23T09:40:59.099Z,4.5
2018-11-23T09:42:08.987Z,4.44
2018-11-23T09:43:18.930Z,4.42
2018-11-23T09:44:29.170Z,4.55
2018-11-23T09:45:39.370Z,4.54
2018-11-23T09:46:49.528Z,4.55
2018-11-23T09:47:59.432Z,4.6
2018-11-23T09:49:09.608Z,4.54
2018-11-23T09:50:19.891Z,4.45
2018-11-23T09:51:30.200Z,4.58
2018-11-23T09:52:40.441Z,4.51
2018-11-23T09:53:50.607Z,4.51
2018-11-23T09:55:00.500Z,4.67
2018-11-23T09:56:10.132Z,4.51
2018-11-23T09:57:20.338Z,4.58
2018-11-23T09:58:30.500Z,4.51
2018-11-23T09:59:40.662Z,4.54
2018-11-23T10:00:51.075Z,4.59
2018-11-23T10:02:01.934Z,4.51
2018-11-23T10:03:12.151Z,4.6
2018-11-23T10:04:22.425Z,4.54
2018-11-23T10:05:32.695Z,4.54
2018-11-23T10:06:42.615Z,4.58
2018-11-23T10:07:52.768Z,4.55
2018-11-23T10:09:02.675Z,4.51
2018-11-23T10:10:12.564Z,4.69
2018-11-23T10:11:22.715Z,4.63
2018-11-23T10:12:32.881Z,4.72
2018-11-23T10:13:43.035Z,4.73
2018-11-23T10:14:52.936Z,4.78
2018-11-23T10:16:02.832Z,4.77
2018-11-23T10:17:12.719Z,4.75
2018-11-23T10:18:22.922Z,4.73
2018-11-23T10:19:33.244Z,4.82
2018-11-23T10:20:43.396Z,4.86
2018-11-23T10:21:53.296Z,4.84
2018-11-23T10:23:03.464Z,4.91
2018-11-23T10:24:13.385Z,4.97
2018-11-23T10:25:23.290Z,5.02
2018-11-23T10:26:33.188Z,4.99
2018-11-23T10:27:43.101Z,4.96
2018-11-23T10:28:52.730Z,4.97
2018-11-23T10:30:03.783Z,5.09
2018-11-23T10:31:13.947Z,5.04
2018-11-23T10:32:24.109Z,5.06
2018-11-23T10:33:34.285Z,5.06
2018-11-23T10:34:44.444Z,5.13
2018-11-23T10:35:54.389Z,5.15
2018-11-23T10:37:04.774Z,5.1
2018-11-23T10:38:14.940Z,5.06
2018-11-23T10:39:24.836Z,5.04
2018-11-23T10:40:34.999Z,5.06
2018-11-23T10:41:45.156Z,4.92
2018-11-23T10:42:54.787Z,5.09
2018-11-23T10:44:04.946Z,4.96
2018-11-23T10:45:15.105Z,4.96
2018-11-23T10:46:25.290Z,5.06
2018-11-23T10:47:35.495Z,5
2018-11-23T10:48:45.654Z,5.06
2018-11-23T10:49:55.851Z,4.99
2018-11-23T10:51:05.741Z,5.04
2018-11-23T10:52:15.906Z,5.12
2018-11-23T10:53:25.818Z,5.17
2018-11-23T10:54:35.989Z,5.22
2018-11-23T10:55:45.887Z,5.2
2018-11-23T10:56:56.091Z,5.25
2018-11-23T10:58:06.080Z,5.3
2018-11-23T10:59:16.247Z,5.38
2018-11-23T11:00:26.151Z,5.38
2018-11-23T11:01:36.044Z,5.39
2018-11-23T11:02:45.946Z,5.31
2018-11-23T11:03:56.104Z,5.31
2018-11-23T11:05:06.259Z,5.28
2018-11-23T11:06:16.149Z,5.3
2018-11-23T11:07:26.313Z,5.3
2018-11-23T11:08:36.205Z,5.3
2018-11-23T11:09:46.371Z,5.43
2018-11-23T11:10:56.628Z,5.46
2018-11-23T11:12:06.546Z,5.46
2018-11-23T11:13:16.438Z,5.48
2018-11-23T11:14:26.596Z,5.4
2018-11-23T11:15:36.492Z,5.43
2018-11-23T11:16:46.663Z,5.4
2018-11-23T11:17:56.563Z,5.42
2018-11-23T11:19:06.726Z,5.48
2018-11-23T11:20:16.627Z,5.4
2018-11-23T11:21:26.524Z,5.3
2018-11-23T11:22:36.431Z,5.39
2018-11-23T11:23:46.602Z,5.43
2018-11-23T11:24:56.497Z,5.46
2018-11-23T11:26:06.656Z,5.43
2018-11-23T11:27:16.831Z,5.42
2018-11-23T11:28:26.992Z,5.38
2018-11-23T11:29:37.165Z,5.35
2018-11-23T11:30:47.338Z,5.35
2018-11-23T11:31:57.540Z,5.31
2018-11-23T11:33:07.707Z,5.33
2018-11-23T11:34:17.921Z,5.35
2018-11-23T11:35:27.816Z,5.28
2018-11-23T11:36:37.977Z,5.27
2018-11-23T11:37:47.865Z,5.33
2018-11-23T11:38:57.759Z,5.21
2018-11-23T11:40:07.653Z,5.25
2018-11-23T11:41:17.814Z,5.2
2018-11-23T11:42:27.705Z,5.36
2018-11-23T11:43:37.872Z,5.2
2018-11-23T11:44:47.766Z,5.31
2018-11-23T11:45:57.929Z,5.38
2018-11-23T11:47:08.096Z,5.4
2018-11-23T11:48:18.256Z,5.43
2018-11-23T11:49:28.152Z,5.51
2018-11-23T11:50:38.314Z,5.46
2018-11-23T11:51:48.212Z,5.4
2018-11-23T11:52:58.371Z,5.45
2018-11-23T11:54:08.524Z,5.39
2018-11-23T11:55:18.424Z,5.33
2018-11-23T11:56:28.589Z,5.35
2018-11-23T11:57:38.751Z,5.33
2018-11-23T11:58:48.913Z,5.36
2018-11-23T11:59:59.074Z,5.31
2018-11-23T12:01:09.255Z,5.33
2018-11-23T12:02:19.154Z,5.4
2018-11-23T12:03:29.312Z,5.45
2018-11-23T12:04:39.465Z,5.42
2018-11-23T12:05:49.641Z,5.39
2018-11-23T12:06:59.803Z,5.38
2018-11-23T12:08:09.955Z,5.3
2018-11-23T12:09:19.845Z,5.38
2018-11-23T12:10:30.011Z,5.39
2018-11-23T12:11:40.182Z,5.39
2018-11-23T12:12:50.348Z,5.38
2018-11-23T12:14:00.510Z,5.21
2018-11-23T12:15:10.401Z,5.13
2018-11-23T12:16:20.557Z,5.2
2018-11-23T12:17:30.950Z,5.21
2018-11-23T12:18:40.592Z,5.21
2018-11-23T12:19:50.760Z,5.25
2018-11-23T12:21:00.967Z,5.3
2018-11-23T12:22:10.857Z,5.35
2018-11-23T12:23:20.742Z,5.3
2018-11-23T12:24:30.904Z,5.35
2018-11-23T12:25:40.792Z,5.33
2018-11-23T12:26:50.733Z,5.31
2018-11-23T12:28:00.895Z,5.36
2018-11-23T12:29:11.060Z,5.43
2018-11-23T12:30:20.982Z,5.42
2018-11-23T12:31:30.888Z,5.42
2018-11-23T12:32:41.048Z,5.56
2018-11-23T12:33:51.213Z,5.56
2018-11-23T12:35:01.379Z,5.45
2018-11-23T12:36:11.533Z,5.45
2018-11-23T12:37:21.430Z,5.53
2018-11-23T12:38:31.322Z,5.48
2018-11-23T12:39:41.476Z,5.48
2018-11-23T12:40:51.637Z,5.45
2018-11-23T12:42:01.531Z,5.48
2018-11-23T12:43:11.691Z,5.38
2018-11-23T12:44:21.851Z,5.35
2018-11-23T12:45:31.750Z,5.31
2018-11-23T12:46:41.909Z,5.25
2018-11-23T12:47:52.074Z,5.27
2018-11-23T12:49:02.238Z,5.3
2018-11-23T12:50:12.407Z,5.24
2018-11-23T12:51:22.305Z,5.33
2018-11-23T12:52:32.467Z,5.3
2018-11-23T12:53:42.627Z,5.35
2018-11-23T12:54:52.786Z,5.36
2018-11-23T12:56:02.947Z,5.48
2018-11-23T12:57:13.321Z,5.57
2018-11-23T12:58:23.511Z,5.67
2018-11-23T12:59:33.721Z,5.61
2018-11-23T13:00:43.877Z,5.67
2018-11-23T13:01:53.772Z,5.68
2018-11-23T13:03:03.931Z,5.67
2018-11-23T13:04:13.834Z,5.65
2018-11-23T13:05:23.747Z,5.64
2018-11-23T13:06:33.909Z,5.65
2018-11-23T13:07:43.811Z,5.58
2018-11-23T13:08:53.450Z,5.71
2018-11-23T13:10:03.613Z,5.67
2018-11-23T13:11:13.778Z,5.61
2018-11-23T13:12:23.683Z,5.68
2018-11-23T13:13:33.580Z,5.72
2018-11-23T13:14:43.743Z,5.67
2018-11-23T13:15:54.014Z,5.67
2018-11-23T13:17:04.175Z,5.65
2018-11-23T13:18:14.345Z,5.65
2018-11-23T13:19:24.243Z,5.67
2018-11-23T13:20:34.404Z,5.65
2018-11-23T13:21:44.563Z,5.67
2018-11-23T13:22:54.712Z,5.75
2018-11-23T13:24:04.888Z,5.85
2018-11-23T13:25:15.038Z,5.79
2018-11-23T13:26:24.662Z,5.64
2018-11-23T13:27:34.819Z,5.67
2018-11-23T13:28:44.746Z,5.67
2018-11-23T13:29:54.956Z,5.65
2018-11-23T13:31:05.148Z,5.79
2018-11-23T13:32:15.313Z,5.79
2018-11-23T13:33:24.941Z,5.85
2018-11-23T13:34:34.844Z,5.86
2018-11-23T13:35:44.737Z,5.85
2018-11-23T13:36:54.633Z,5.81
2018-11-23T13:38:04.537Z,5.74
2018-11-23T13:39:14.704Z,5.78
2018-11-23T13:40:24.613Z,5.78
2018-11-23T13:41:34.773Z,5.75
2018-11-23T13:42:44.930Z,5.65
2018-11-23T13:43:55.085Z,5.63
2018-11-23T13:45:05.077Z,5.64
2018-11-23T13:46:15.253Z,5.6
2018-11-23T13:47:25.177Z,5.65
2018-11-23T13:48:35.354Z,5.63
2018-11-23T13:49:45.659Z,5.63
2018-11-23T13:50:56.187Z,5.56
2018-11-23T13:52:06.340Z,5.58
2018-11-23T13:53:16.501Z,5.61
2018-11-23T13:54:26.398Z,5.61
2018-11-23T13:55:36.567Z,5.72
2018-11-23T13:56:46.763Z,5.61
2018-11-23T13:57:56.398Z,5.63
2018-11-23T13:59:06.740Z,5.6
2018-11-23T14:00:16.644Z,5.67
2018-11-23T14:01:26.821Z,5.6
2018-11-23T14:02:36.718Z,5.58
2018-11-23T14:03:46.879Z,5.63
2018-11-23T14:04:57.038Z,5.54
2018-11-23T14:06:06.936Z,5.56
2018-11-23T14:07:16.830Z,5.61
2018-11-23T14:08:26.982Z,5.46
2018-11-23T14:09:37.148Z,5.57
2018-11-23T14:10:46.792Z,5.63
2018-11-23T14:11:56.958Z,5.58
2018-11-23T14:13:13.551Z,5.61
2018-11-23T14:14:23.445Z,5.68
2018-11-23T14:15:33.337Z,5.67
2018-11-23T14:16:43.500Z,5.67
2018-11-23T14:17:53.398Z,5.64
2018-11-23T14:19:03.567Z,5.67
2018-11-23T14:20:13.745Z,5.61
2018-11-23T14:21:23.908Z,5.71
2018-11-23T14:22:33.815Z,5.63
2018-11-23T14:23:43.713Z,5.65
2018-11-23T14:24:53.870Z,5.57
2018-11-23T14:26:03.771Z,5.49
2018-11-23T14:27:13.928Z,5.43
2018-11-23T14:28:24.090Z,5.45
2018-11-23T14:29:34.254Z,5.48
2018-11-23T14:30:44.405Z,5.42
2018-11-23T14:31:54.561Z,5.46
2018-11-23T14:33:04.721Z,5.54
2018-11-23T14:34:14.916Z,5.42
2018-11-23T14:35:25.142Z,5.48
2018-11-23T14:36:35.045Z,5.39
2018-11-23T14:37:44.676Z,5.42
2018-11-23T14:38:54.833Z,5.45
2018-11-23T14:40:05.004Z,5.54
2018-11-23T14:41:15.180Z,5.49
2018-11-23T14:42:25.380Z,5.54
2018-11-23T14:43:35.552Z,5.42
2018-11-23T14:44:45.717Z,5.48
2018-11-23T14:45:55.648Z,5.42
2018-11-23T14:47:05.553Z,5.38
2018-11-23T14:48:14.662Z,5.43
2018-11-23T14:49:24.358Z,5.43
2018-11-23T14:50:34.258Z,5.43
2018-11-23T14:51:44.431Z,5.43
2018-11-23T14:52:54.392Z,5.42
2018-11-23T14:54:04.299Z,5.35
2018-11-23T14:55:13.934Z,5.4
2018-11-23T14:56:24.150Z,5.4
2018-11-23T14:57:34.057Z,5.51
2018-11-23T14:58:44.220Z,5.54
2018-11-23T14:59:54.399Z,5.58
2018-11-23T15:01:04.036Z,5.48
2018-11-23T15:02:14.216Z,5.43
2018-11-23T15:03:24.392Z,5.45
2018-11-23T15:04:34.614Z,5.48
2018-11-23T15:05:44.775Z,5.51
2018-11-23T15:06:54.681Z,5.4
2018-11-23T15:08:04.571Z,5.51
2018-11-23T15:09:14.732Z,5.56
2018-11-23T15:10:24.894Z,5.48
2018-11-23T15:11:35.058Z,5.46
2018-11-23T15:12:45.242Z,5.46
2018-11-23T15:13:55.399Z,5.39
2018-11-23T15:15:05.560Z,5.39
2018-11-23T15:16:15.781Z,5.39
2018-11-23T15:17:25.948Z,5.38
2018-11-23T15:18:35.849Z,5.36
2018-11-23T15:19:46.048Z,5.45
2018-11-23T15:20:56.212Z,5.4
2018-11-23T15:22:06.105Z,5.42
2018-11-23T15:23:16.267Z,5.31
2018-11-23T15:24:26.429Z,5.43
2018-11-23T15:25:36.598Z,5.48
2018-11-23T15:26:46.753Z,5.43
2018-11-23T15:27:56.667Z,5.48
2018-11-23T15:29:06.570Z,5.45
2018-11-23T15:30:17.008Z,5.43
2018-11-23T15:31:27.172Z,5.39
2018-11-23T15:32:36.824Z,5.35
2018-11-23T15:33:47.056Z,5.3
2018-11-23T15:34:56.961Z,5.36
2018-11-23T15:36:06.871Z,5.33
2018-11-23T15:37:17.084Z,5.39
2018-11-23T15:38:27.241Z,5.35